This is the latest recevied weather packets stored in our database for station/object N4MRV-1. If no packets are shown the sender has not sent any weather packets the latest 10 day(s).
| Time | Temp. | Humidity | Pressure | Rain* | Wind** | Luminosity | Snow |
|---|---|---|---|---|---|---|---|
| 1777638616 | 6.67° C | 89% | 1016.7 hPa | 0 mm | - | 50 W/m² | - |
| 1777635016 | 3.89° C | 92% | 1016.5 hPa | 0 mm | - | 27 W/m² | - |
| 1777634116 | 3.89° C | 90% | 1016.3 hPa | 0 mm | - | 22 W/m² | - |
| 1777630516 | 3.89° C | 88% | 1016.1 hPa | 0 mm | - | 0 W/m² | - |
| 1777626016 | 5° C | 86% | 1015.9 hPa | 0 mm | - | 0 W/m² | - |
| 1777625116 | 5° C | 85% | 1015.8 hPa | 0 mm | - | 0 W/m² | - |
| 1777607116 | 11.67° C | 61% | 1014.1 hPa | 0 mm | - | 0 W/m² | - |
| 1777591837 | 18.89° C | 38% | 1010.2 hPa | 0 mm | - | 25 W/m² | - |
| 1777588215 | 20.56° C | 44% | 1009 hPa | 0 mm | - | 74 W/m² | - |
| 1777584617 | 21.11° C | 45% | 1008.6 hPa | 0 mm | - | 86 W/m² | - |
| 1777581017 | 21.11° C | 41% | 1008.3 hPa | 0 mm | - | 138 W/m² | - |
| 1777573816 | 20° C | 52% | 1008.6 hPa | 0 mm | - | 143 W/m² | - |
| 1777572917 | 20° C | 53% | 1008.8 hPa | 0 mm | - | 186 W/m² | - |
| 1777572017 | 19.44° C | 58% | 1008.9 hPa | 0 mm | - | 154 W/m² | - |
| 1777571116 | 19.44° C | 57% | 1009.1 hPa | 0 mm | - | 143 W/m² | - |
| 1777564816 | 18.33° C | 67% | 1009.9 hPa | 0 mm | - | 222 W/m² | - |
| 1777563917 | 18.33° C | 68% | 1010 hPa | 0 mm | - | 366 W/m² | - |
| 1777561216 | 17.22° C | 72% | 1010 hPa | 0 mm | - | 318 W/m² | - |
| 1777560316 | 17.22° C | 75% | 1010.1 hPa | 0 mm | - | 265 W/m² | - |
| 1777558516 | 16.11° C | 82% | 1010.2 hPa | 0 mm | - | 181 W/m² | - |
| 1777556716 | 15.56° C | 84% | 1010.3 hPa | 0 mm | - | 175 W/m² | - |
| 1777554916 | 14.44° C | 87% | 1010.1 hPa | 0 mm | - | 121 W/m² | - |
| 1777545016 | 13.89° C | 95% | 1008.3 hPa | 0 mm | - | 5 W/m² | - |
| 1777544116 | 13.89° C | 95% | 1008.3 hPa | 0 mm | - | 0 W/m² | - |
| 1777541416 | 14.44° C | 95% | 1008.5 hPa | 0 mm | - | 0 W/m² | - |
* Rain latest hour (hover to see other rain measurements)
** Current wind speed in m/s (hover to see current wind gust speed)